Time;durP1;ratioP1;P1;durP2;ratioP2;P2;SDS_P1;SDS_P2;PMS_P1;PMS_P2;Temp;Humidity;BMP_temperature;BMP_pressure;BME280_temperature;BME280_humidity;BME280_pressure;Samples;Min_cycle;Max_cycle;Signal;HPM_P1;HPM_P2
2024/04/19 00:14:41;;;;;;;26.60;12.10;;;;;;;1.45;76.47;99839.55;669076;1270;139167;-78
2024/04/19 00:29:45;;;;;;;24.50;11.00;;;;;;;1.41;76.86;99823.80;672300;1279;139461;-79
2024/04/19 00:44:48;;;;;;;28.00;11.70;;;;;;;1.38;77.48;99807.06;672304;1267;140322;-78
2024/04/19 00:59:51;;;;;;;22.40;10.10;;;;;;;1.21;77.51;99796.80;673714;1271;140678;-78
2024/04/19 01:14:54;;;;;;;23.00;10.00;;;;;;;1.12;78.39;99777.38;669225;1268;141423;-78
2024/04/19 01:29:57;;;;;;;33.40;13.30;;;;;;;1.29;78.32;99760.38;674194;1263;141614;-78
2024/04/19 01:45:01;;;;;;;48.80;19.00;;;;;;;1.82;79.31;99741.91;675226;1261;140981;-78
2024/04/19 02:00:05;;;;;;;50.70;20.10;;;;;;;2.25;79.94;99729.64;672497;1261;140119;-78
2024/04/19 02:15:14;;;;;;;33.60;15.50;;;;;;;2.26;80.21;99712.68;674838;1273;138858;-79
2024/04/19 02:45:40;;;;;;;33.80;15.70;;;;;;;1.60;82.53;99692.05;673641;1260;140574;-79
2024/04/19 03:00:58;;;;;;;38.30;14.60;;;;;;;1.74;83.16;99675.00;670225;1264;139429;-80
2024/04/19 03:16:18;;;;;;;49.50;20.80;;;;;;;1.94;83.82;99666.54;651198;1301;545127;-78
2024/04/19 03:31:22;;;;;;;55.90;26.70;;;;;;;2.21;84.62;99645.71;670572;1276;139310;-78
2024/04/19 03:46:24;;;;;;;39.60;20.00;;;;;;;2.64;84.68;99616.16;664886;1285;138773;-79
2024/04/19 04:01:27;;;;;;;33.00;18.70;;;;;;;2.97;84.40;99596.42;668991;1276;138712;-78
2024/04/19 04:16:31;;;;;;;36.00;18.50;;;;;;;3.23;84.87;99594.98;670896;1273;138787;-80
2024/04/19 04:31:34;;;;;;;35.30;18.90;;;;;;;3.58;85.31;99590.52;667660;1285;139297;-78
2024/04/19 04:46:37;;;;;;;51.80;27.10;;;;;;;3.57;86.43;99596.81;669673;1276;139954;-78
2024/04/19 05:01:40;;;;;;;40.60;18.80;;;;;;;3.75;87.60;99580.51;672481;1277;138588;-78
2024/04/19 05:16:43;;;;;;;32.30;16.40;;;;;;;4.03;90.49;99556.88;667334;1270;140097;-77
2024/04/19 05:31:47;;;;;;;34.70;19.80;;;;;;;4.47;91.13;99550.73;669505;1274;140351;-77
2024/04/19 05:46:50;;;;;;;34.50;16.10;;;;;;;4.94;92.52;99548.44;674488;1264;138607;-79
2024/04/19 06:01:53;;;;;;;32.70;19.30;;;;;;;5.58;92.22;99535.56;676503;1263;140697;-79
2024/04/19 06:17:09;;;;;;;20.90;13.00;;;;;;;6.49;90.90;99527.21;676442;1260;137678;-79
2024/04/19 06:32:12;;;;;;;45.70;25.00;;;;;;;6.58;89.05;99520.80;668938;1261;139963;-78
2024/04/19 06:47:16;;;;;;;35.50;19.60;;;;;;;6.63;90.25;99518.61;667489;1259;139343;-80
2024/04/19 07:02:19;;;;;;;36.10;22.00;;;;;;;6.91;89.94;99506.55;666845;1263;139649;-78
2024/04/19 07:17:23;;;;;;;30.30;17.30;;;;;;;7.28;89.54;99491.88;670149;1259;141556;-79
2024/04/19 07:32:27;;;;;;;26.90;14.20;;;;;;;7.69;88.85;99479.98;668743;1265;140220;-77
2024/04/19 07:47:31;;;;;;;22.60;12.20;;;;;;;8.16;87.55;99469.20;673454;1275;138628;-79
2024/04/19 08:02:34;;;;;;;13.70;9.30;;;;;;;8.57;86.58;99459.73;679245;1262;138773;-79
2024/04/19 08:17:40;;;;;;;18.60;10.50;;;;;;;8.72;84.99;99451.86;676677;1266;139717;-80
2024/04/19 08:32:44;;;;;;;28.30;17.00;;;;;;;9.33;82.97;99429.79;674299;1264;142030;-80
2024/04/19 08:47:49;;;;;;;61.10;28.30;;;;;;;10.33;80.61;99418.16;676505;1264;140830;-78
2024/04/19 09:02:52;;;;;;;30.20;20.70;;;;;;;13.90;75.84;99401.73;677456;1262;139304;-77
2024/04/19 09:17:57;;;;;;;8.20;5.80;;;;;;;15.40;68.44;99377.00;672424;1258;140177;-77
2024/04/19 09:33:00;;;;;;;7.40;5.30;;;;;;;16.83;62.05;99348.44;677752;1263;138498;-78
2024/04/19 09:48:06;;;;;;;7.00;5.10;;;;;;;13.89;59.64;99340.36;677686;1261;139600;-78
2024/04/19 10:03:14;;;;;;;11.60;7.10;;;;;;;11.77;63.76;99326.14;675350;1262;138507;-77
2024/04/19 10:18:19;;;;;;;14.50;8.70;;;;;;;12.61;66.82;99307.80;677576;1264;139734;-77
2024/04/19 10:33:23;;;;;;;14.60;9.80;;;;;;;12.98;66.54;99299.15;674529;1259;139538;-78
2024/04/19 10:48:26;;;;;;;14.70;7.90;;;;;;;12.91;66.02;99285.55;674192;1264;139473;-79
2024/04/19 11:03:32;;;;;;;20.90;12.00;;;;;;;13.37;65.38;99277.71;676205;1259;140838;-77
2024/04/19 11:18:38;;;;;;;14.10;7.40;;;;;;;12.44;66.37;99273.41;675499;1263;140966;-78
2024/04/19 11:33:42;;;;;;;23.80;12.00;;;;;;;13.81;66.98;99259.58;676584;1265;139400;-77
2024/04/19 11:48:46;;;;;;;13.90;8.90;;;;;;;13.99;66.41;99235.89;678423;1264;141917;-79
2024/04/19 12:03:49;;;;;;;11.00;7.90;;;;;;;14.45;64.93;99227.25;672297;1264;140014;-78
2024/04/19 12:18:53;;;;;;;12.40;7.30;;;;;;;13.96;64.58;99211.97;673031;1263;140558;-79
2024/04/19 12:33:57;;;;;;;15.90;7.70;;;;;;;13.88;62.88;99194.13;672471;1260;140185;-78
2024/04/19 12:49:06;;;;;;;10.20;6.30;;;;;;;13.35;58.01;99181.41;676767;1265;139353;-79
2024/04/19 13:04:09;;;;;;;15.90;6.20;;;;;;;14.53;54.30;99167.36;677495;1260;138573;-79
2024/04/19 13:19:12;;;;;;;25.60;14.50;;;;;;;14.65;51.65;99153.73;678587;1263;139652;-79
2024/04/19 13:34:17;;;;;;;14.00;7.20;;;;;;;14.81;50.91;99135.60;678250;1272;140022;-77
2024/04/19 13:49:20;;;;;;;11.60;5.90;;;;;;;14.28;48.87;99116.88;677471;1262;140074;-78
2024/04/19 14:04:23;;;;;;;16.10;9.70;;;;;;;13.41;49.25;99103.84;672913;1262;138689;-78
2024/04/19 14:19:27;;;;;;;13.30;4.70;;;;;;;13.73;49.52;99100.43;674640;1265;141112;-78
2024/04/19 14:34:30;;;;;;;13.50;6.40;;;;;;;13.77;48.64;99091.70;673589;1276;139908;-77
2024/04/19 14:49:34;;;;;;;7.30;4.80;;;;;;;13.35;48.97;99086.48;671132;1264;139071;-80
2024/04/19 15:04:37;;;;;;;11.70;5.30;;;;;;;13.64;48.84;99078.00;666486;1263;138248;-78
2024/04/19 15:19:41;;;;;;;13.40;5.50;;;;;;;14.20;49.07;99068.42;667673;1262;206704;-78
2024/04/19 15:34:44;;;;;;;19.80;6.40;;;;;;;14.05;49.14;99060.77;668366;1278;138297;-79
2024/04/19 15:49:53;;;;;;;13.40;5.50;;;;;;;13.24;50.68;99058.15;669322;1263;139253;-78
2024/04/19 16:04:57;;;;;;;15.90;7.80;;;;;;;11.94;57.57;99068.73;671473;1272;139064;-78
2024/04/19 16:20:00;;;;;;;19.90;9.20;;;;;;;11.61;60.37;99067.16;673956;1264;139773;-79
2024/04/19 16:35:06;;;;;;;21.50;8.90;;;;;;;11.50;60.77;99062.75;676104;1265;137898;-79
2024/04/19 16:50:09;;;;;;;11.50;5.20;;;;;;;11.54;61.06;99061.25;673638;1262;139396;-79
2024/04/19 17:05:20;;;;;;;11.60;5.50;;;;;;;11.07;61.46;99056.63;670803;1263;139357;-78
2024/04/19 17:20:23;;;;;;;74.60;38.10;;;;;;;10.69;63.14;99061.23;672939;1263;139379;-79
2024/04/19 17:35:26;;;;;;;54.60;26.60;;;;;;;10.30;65.24;99067.77;673320;1264;140201;-79
2024/04/19 17:50:30;;;;;;;52.70;26.10;;;;;;;9.82;69.01;99071.25;671868;1262;140997;-79
2024/04/19 18:05:34;;;;;;;106.40;42.80;;;;;;;9.47;72.51;99073.38;677610;1264;140145;-80
2024/04/19 18:20:39;;;;;;;36.80;16.60;;;;;;;9.32;73.73;99072.73;672245;1260;140421;-79
2024/04/19 18:35:43;;;;;;;22.70;12.20;;;;;;;8.94;76.41;99076.65;671152;1264;140977;-79
2024/04/19 18:50:47;;;;;;;21.40;12.70;;;;;;;8.75;77.70;99075.90;668420;1263;138638;-80
2024/04/19 19:05:53;;;;;;;44.00;25.80;;;;;;;8.58;77.95;99078.72;675433;1261;139473;-80
2024/04/19 19:20:56;;;;;;;35.60;18.10;;;;;;;8.44;79.00;99073.06;674901;1262;140373;-80
2024/04/19 19:36:02;;;;;;;56.00;28.70;;;;;;;8.42;78.81;99068.48;674254;1265;140301;-81
2024/04/19 19:51:06;;;;;;;25.90;13.30;;;;;;;8.31;79.04;99065.90;674833;1264;139808;-78
2024/04/19 20:06:09;;;;;;;50.20;22.70;;;;;;;8.21;80.64;99061.17;674645;1264;140412;-81
2024/04/19 20:21:13;;;;;;;26.50;11.50;;;;;;;8.16;81.25;99067.40;672577;1273;140279;-80
2024/04/19 20:36:17;;;;;;;70.60;28.30;;;;;;;8.07;81.71;99072.02;673713;1263;140893;-80
2024/04/19 20:51:30;;;;;;;29.70;14.30;;;;;;;8.11;82.53;99072.73;675729;1260;140504;-80
2024/04/19 21:06:33;;;;;;;27.80;16.10;;;;;;;8.03;83.15;99076.09;672655;1264;139993;-80
2024/04/19 21:21:37;;;;;;;28.90;16.10;;;;;;;7.83;84.79;99076.60;676309;1265;139658;-80
2024/04/19 21:36:44;;;;;;;48.70;23.80;;;;;;;7.86;85.33;99074.29;677062;1275;140029;-80
2024/04/19 21:51:47;;;;;;;23.20;12.10;;;;;;;7.92;85.01;99074.02;677203;1275;139156;-80
2024/04/19 22:06:50;;;;;;;30.30;18.90;;;;;;;7.85;85.39;99073.16;678971;1259;139031;-80
2024/04/19 22:21:53;;;;;;;26.20;15.40;;;;;;;8.02;85.40;99069.61;679149;1265;138996;-79
2024/04/19 22:36:57;;;;;;;20.20;11.80;;;;;;;8.03;85.74;99071.75;678601;1261;140407;-79
2024/04/19 22:52:00;;;;;;;21.70;12.20;;;;;;;8.00;86.21;99065.23;678135;1266;138916;-79
2024/04/19 23:07:04;;;;;;;20.90;14.00;;;;;;;7.96;86.28;99063.15;679982;1264;140787;-79
2024/04/19 23:22:07;;;;;;;25.70;16.20;;;;;;;7.83;86.84;99059.05;677151;1262;138996;-80
2024/04/19 23:37:10;;;;;;;25.10;16.40;;;;;;;7.81;87.52;99055.04;674899;1263;140013;-80
2024/04/19 23:52:13;;;;;;;25.10;13.70;;;;;;;7.89;87.91;99052.35;677433;1259;139292;-80
